sensor_id;sensor_type;location;lat;lon;timestamp;pressure;altitude;pressure_sealevel;temperature;humidity
78121;BME280;67585;44.802;10.332;2023-04-03T00:01:26;100696.03;;;12.46;49.93
78121;BME280;67585;44.802;10.332;2023-04-03T00:03:52;100697.91;;;12.40;50.06
78121;BME280;67585;44.802;10.332;2023-04-03T00:06:17;100703.06;;;12.47;49.97
78121;BME280;67585;44.802;10.332;2023-04-03T00:08:43;100710.66;;;12.60;49.74
78121;BME280;67585;44.802;10.332;2023-04-03T00:11:09;100710.09;;;12.68;49.95
78121;BME280;67585;44.802;10.332;2023-04-03T00:13:36;100705.75;;;12.57;49.88
78121;BME280;67585;44.802;10.332;2023-04-03T00:16:02;100674.94;;;12.32;49.76
78121;BME280;67585;44.802;10.332;2023-04-03T00:18:28;100710.06;;;12.43;50.42
78121;BME280;67585;44.802;10.332;2023-04-03T00:20:54;100713.06;;;12.36;50.14
78121;BME280;67585;44.802;10.332;2023-04-03T00:23:19;100702.50;;;12.34;51.25
78121;BME280;67585;44.802;10.332;2023-04-03T00:25:44;100707.41;;;12.53;49.94
78121;BME280;67585;44.802;10.332;2023-04-03T00:28:10;100717.66;;;12.51;50.47
78121;BME280;67585;44.802;10.332;2023-04-03T00:30:36;100705.50;;;12.58;51.02
78121;BME280;67585;44.802;10.332;2023-04-03T00:33:02;100705.50;;;12.43;50.50
78121;BME280;67585;44.802;10.332;2023-04-03T00:35:28;100701.97;;;12.43;51.90
78121;BME280;67585;44.802;10.332;2023-04-03T00:37:54;100690.09;;;12.38;51.46
78121;BME280;67585;44.802;10.332;2023-04-03T00:40:23;100698.75;;;12.56;50.98
78121;BME280;67585;44.802;10.332;2023-04-03T00:42:54;100696.03;;;12.46;50.89
78121;BME280;67585;44.802;10.332;2023-04-03T00:45:30;100687.09;;;12.19;52.07
78121;BME280;67585;44.802;10.332;2023-04-03T00:47:56;100693.59;;;12.18;51.64
78121;BME280;67585;44.802;10.332;2023-04-03T00:50:26;100687.13;;;12.45;51.37
78121;BME280;67585;44.802;10.332;2023-04-03T00:52:51;100687.38;;;12.59;51.30
78121;BME280;67585;44.802;10.332;2023-04-03T00:55:17;100669.53;;;12.27;51.61
78121;BME280;67585;44.802;10.332;2023-04-03T00:57:45;100692.25;;;12.57;50.33
78121;BME280;67585;44.802;10.332;2023-04-03T01:00:14;100681.44;;;12.52;50.33
78121;BME280;67585;44.802;10.332;2023-04-03T01:02:41;100670.09;;;12.24;51.21
78121;BME280;67585;44.802;10.332;2023-04-03T01:05:08;100697.41;;;12.43;50.98
78121;BME280;67585;44.802;10.332;2023-04-03T01:07:34;100682.78;;;12.39;51.33
78121;BME280;67585;44.802;10.332;2023-04-03T01:10:08;100697.09;;;12.34;50.97
78121;BME280;67585;44.802;10.332;2023-04-03T01:12:35;100687.94;;;12.46;51.64
78121;BME280;67585;44.802;10.332;2023-04-03T01:15:07;100675.78;;;12.38;51.19
78121;BME280;67585;44.802;10.332;2023-04-03T01:17:34;100682.25;;;12.32;51.55
78121;BME280;67585;44.802;10.332;2023-04-03T01:25:31;100688.19;;;12.18;51.84
78121;BME280;67585;44.802;10.332;2023-04-03T01:27:56;100683.34;;;12.41;51.20
78121;BME280;67585;44.802;10.332;2023-04-03T01:30:28;100694.16;;;12.31;52.19
78121;BME280;67585;44.802;10.332;2023-04-03T01:32:55;100660.91;;;12.30;51.78
78121;BME280;67585;44.802;10.332;2023-04-03T01:35:21;100689.25;;;12.17;52.26
78121;BME280;67585;44.802;10.332;2023-04-03T01:37:46;100675.44;;;11.98;53.43
78121;BME280;67585;44.802;10.332;2023-04-03T01:40:12;100674.06;;;11.91;53.05
78121;BME280;67585;44.802;10.332;2023-04-03T01:42:37;100679.97;;;11.83;53.74
78121;BME280;67585;44.802;10.332;2023-04-03T01:45:03;100642.16;;;11.72;53.23
78121;BME280;67585;44.802;10.332;2023-04-03T01:47:28;100675.47;;;12.09;52.90
78121;BME280;67585;44.802;10.332;2023-04-03T01:49:53;100666.28;;;12.05;53.29
78121;BME280;67585;44.802;10.332;2023-04-03T01:52:19;100649.75;;;11.86;52.51
78121;BME280;67585;44.802;10.332;2023-04-03T01:54:44;100653.53;;;11.80;52.99
78121;BME280;67585;44.802;10.332;2023-04-03T01:57:10;100674.94;;;12.07;53.41
78121;BME280;67585;44.802;10.332;2023-04-03T01:59:35;100661.06;;;11.77;52.97
78121;BME280;67585;44.802;10.332;2023-04-03T02:02:01;100665.63;;;11.77;53.97
78121;BME280;67585;44.802;10.332;2023-04-03T02:04:26;100669.16;;;11.77;53.79
78121;BME280;67585;44.802;10.332;2023-04-03T02:06:52;100673.47;;;11.84;53.08
78121;BME280;67585;44.802;10.332;2023-04-03T02:09:17;100672.34;;;11.64;53.57
78121;BME280;67585;44.802;10.332;2023-04-03T02:11:43;100652.88;;;11.52;54.67
78121;BME280;67585;44.802;10.332;2023-04-03T02:14:08;100665.03;;;11.60;53.89
78121;BME280;67585;44.802;10.332;2023-04-03T02:16:34;100663.81;;;11.93;53.85
78121;BME280;67585;44.802;10.332;2023-04-03T02:18:59;100641.63;;;11.75;52.98
78121;BME280;67585;44.802;10.332;2023-04-03T02:21:24;100650.53;;;11.76;53.31
78121;BME280;67585;44.802;10.332;2023-04-03T02:23:50;100629.50;;;11.78;53.21
78121;BME280;67585;44.802;10.332;2023-04-03T02:26:16;100647.03;;;11.81;53.14
78121;BME280;67585;44.802;10.332;2023-04-03T02:28:42;100646.25;;;11.85;53.82
78121;BME280;67585;44.802;10.332;2023-04-03T02:31:08;100653.78;;;11.78;53.21
78121;BME280;67585;44.802;10.332;2023-04-03T02:33:35;100644.13;;;11.92;52.98
78121;BME280;67585;44.802;10.332;2023-04-03T02:36:01;100651.13;;;11.98;52.54
78121;BME280;67585;44.802;10.332;2023-04-03T02:38:27;100647.84;;;11.81;53.39
78121;BME280;67585;44.802;10.332;2023-04-03T02:40:53;100633.34;;;11.97;53.28
78121;BME280;67585;44.802;10.332;2023-04-03T02:43:18;100650.34;;;12.08;52.86
78121;BME280;67585;44.802;10.332;2023-04-03T02:45:44;100638.69;;;11.82;52.80
78121;BME280;67585;44.802;10.332;2023-04-03T02:48:09;100652.13;;;11.67;54.19
78121;BME280;67585;44.802;10.332;2023-04-03T02:50:35;100651.63;;;11.75;53.18
78121;BME280;67585;44.802;10.332;2023-04-03T02:53:00;100637.56;;;11.68;53.60
78121;BME280;67585;44.802;10.332;2023-04-03T02:55:25;100631.03;;;11.48;52.93
78121;BME280;67585;44.802;10.332;2023-04-03T02:57:51;100652.13;;;11.72;53.42
78121;BME280;67585;44.802;10.332;2023-04-03T03:00:17;100645.44;;;11.80;52.46
78121;BME280;67585;44.802;10.332;2023-04-03T03:02:42;100650.78;;;11.69;53.32
78121;BME280;67585;44.802;10.332;2023-04-03T03:05:08;100640.84;;;11.85;53.22
78121;BME280;67585;44.802;10.332;2023-04-03T03:07:34;100650.84;;;11.85;52.45
78121;BME280;67585;44.802;10.332;2023-04-03T03:09:59;100621.84;;;11.54;52.74
78121;BME280;67585;44.802;10.332;2023-04-03T03:12:25;100630.41;;;11.31;53.69
78121;BME280;67585;44.802;10.332;2023-04-03T03:14:50;100647.44;;;11.42;53.35
78121;BME280;67585;44.802;10.332;2023-04-03T03:17:16;100646.66;;;11.41;53.23
78121;BME280;67585;44.802;10.332;2023-04-03T03:19:42;100642.81;;;11.27;53.78
78121;BME280;67585;44.802;10.332;2023-04-03T03:22:08;100648.81;;;11.44;53.33
78121;BME280;67585;44.802;10.332;2023-04-03T03:24:33;100644.03;;;11.67;53.25
78121;BME280;67585;44.802;10.332;2023-04-03T03:26:59;100651.56;;;11.70;52.81
78121;BME280;67585;44.802;10.332;2023-04-03T03:29:25;100644.31;;;11.65;52.64
78121;BME280;67585;44.802;10.332;2023-04-03T03:31:50;100656.16;;;11.59;53.47
78121;BME280;67585;44.802;10.332;2023-04-03T03:34:16;100653.44;;;11.54;52.97
78121;BME280;67585;44.802;10.332;2023-04-03T03:36:41;100660.13;;;11.41;53.14
78121;BME280;67585;44.802;10.332;2023-04-03T03:39:07;100661.53;;;11.54;53.77
78121;BME280;67585;44.802;10.332;2023-04-03T03:41:32;100648.03;;;11.54;52.84
78121;BME280;67585;44.802;10.332;2023-04-03T03:43:58;100647.53;;;11.67;52.51
78121;BME280;67585;44.802;10.332;2023-04-03T03:46:23;100649.16;;;11.68;52.59
78121;BME280;67585;44.802;10.332;2023-04-03T03:48:49;100646.06;;;11.34;52.50
78121;BME280;67585;44.802;10.332;2023-04-03T03:51:14;100649.13;;;11.58;52.43
78121;BME280;67585;44.802;10.332;2023-04-03T03:53:40;100647.22;;;11.53;52.66
78121;BME280;67585;44.802;10.332;2023-04-03T03:56:06;100630.75;;;11.50;52.77
78121;BME280;67585;44.802;10.332;2023-04-03T03:58:32;100655.88;;;11.55;52.73
78121;BME280;67585;44.802;10.332;2023-04-03T04:01:01;100653.66;;;11.47;52.69
78121;BME280;67585;44.802;10.332;2023-04-03T04:03:27;100665.03;;;11.54;52.65
78121;BME280;67585;44.802;10.332;2023-04-03T04:05:52;100637.13;;;11.23;53.44
78121;BME280;67585;44.802;10.332;2023-04-03T04:08:18;100656.00;;;11.23;53.72
78121;BME280;67585;44.802;10.332;2023-04-03T04:10:43;100647.41;;;11.26;53.39
78121;BME280;67585;44.802;10.332;2023-04-03T04:13:09;100660.94;;;11.42;52.90
78121;BME280;67585;44.802;10.332;2023-04-03T04:15:34;100668.19;;;11.36;53.47
78121;BME280;67585;44.802;10.332;2023-04-03T04:17:59;100658.75;;;11.33;52.84
78121;BME280;67585;44.802;10.332;2023-04-03T04:20:25;100644.41;;;11.28;53.32
78121;BME280;67585;44.802;10.332;2023-04-03T04:22:50;100668.97;;;11.26;53.70
78121;BME280;67585;44.802;10.332;2023-04-03T04:25:16;100659.28;;;11.41;54.21
78121;BME280;67585;44.802;10.332;2023-04-03T04:27:41;100647.88;;;11.18;53.22
78121;BME280;67585;44.802;10.332;2023-04-03T04:30:07;100663.59;;;11.31;53.58
78121;BME280;67585;44.802;10.332;2023-04-03T04:32:33;100621.38;;;11.00;53.73
78121;BME280;67585;44.802;10.332;2023-04-03T04:34:58;100648.16;;;11.17;53.76
78121;BME280;67585;44.802;10.332;2023-04-03T04:37:24;100660.03;;;11.26;53.21
78121;BME280;67585;44.802;10.332;2023-04-03T04:39:49;100669.41;;;11.13;54.14
78121;BME280;67585;44.802;10.332;2023-04-03T04:42:15;100656.81;;;11.24;53.34
78121;BME280;67585;44.802;10.332;2023-04-03T04:44:40;100674.06;;;11.28;53.84
78121;BME280;67585;44.802;10.332;2023-04-03T04:47:05;100671.16;;;11.34;53.18
78121;BME280;67585;44.802;10.332;2023-04-03T04:49:31;100672.63;;;11.05;53.82
78121;BME280;67585;44.802;10.332;2023-04-03T04:51:56;100667.19;;;11.00;54.32
78121;BME280;67585;44.802;10.332;2023-04-03T04:54:22;100658.25;;;10.94;54.45
78121;BME280;67585;44.802;10.332;2023-04-03T04:56:47;100674.47;;;11.04;54.17
78121;BME280;67585;44.802;10.332;2023-04-03T04:59:12;100664.25;;;11.06;54.34
78121;BME280;67585;44.802;10.332;2023-04-03T05:01:38;100674.59;;;11.20;54.15
78121;BME280;67585;44.802;10.332;2023-04-03T05:04:04;100672.28;;;11.44;53.50
78121;BME280;67585;44.802;10.332;2023-04-03T05:06:29;100641.13;;;11.16;54.43
78121;BME280;67585;44.802;10.332;2023-04-03T05:08:56;100682.97;;;11.28;54.37
78121;BME280;67585;44.802;10.332;2023-04-03T05:11:22;100655.59;;;11.04;54.30
78121;BME280;67585;44.802;10.332;2023-04-03T05:13:47;100642.94;;;11.00;53.99
78121;BME280;67585;44.802;10.332;2023-04-03T05:16:12;100667.31;;;11.20;54.09
78121;BME280;67585;44.802;10.332;2023-04-03T05:18:38;100690.59;;;11.37;54.09
78121;BME280;67585;44.802;10.332;2023-04-03T05:21:03;100661.28;;;11.03;54.49
78121;BME280;67585;44.802;10.332;2023-04-03T05:23:29;100653.34;;;10.81;55.34
78121;BME280;67585;44.802;10.332;2023-04-03T05:25:55;100681.84;;;11.14;54.85
78121;BME280;67585;44.802;10.332;2023-04-03T05:28:21;100691.38;;;11.37;55.62
78121;BME280;67585;44.802;10.332;2023-04-03T05:30:53;100624.56;;;10.91;55.13
78121;BME280;67585;44.802;10.332;2023-04-03T05:33:19;100672.00;;;10.93;56.48
78121;BME280;67585;44.802;10.332;2023-04-03T05:35:44;100670.47;;;11.07;55.75
78121;BME280;67585;44.802;10.332;2023-04-03T05:38:10;100687.03;;;11.31;53.95
78121;BME280;67585;44.802;10.332;2023-04-03T05:40:36;100685.38;;;11.20;54.61
78121;BME280;67585;44.802;10.332;2023-04-03T05:43:01;100693.72;;;11.18;54.75
78121;BME280;67585;44.802;10.332;2023-04-03T05:45:27;100692.44;;;11.31;53.92
78121;BME280;67585;44.802;10.332;2023-04-03T05:47:52;100714.75;;;11.21;54.27
78121;BME280;67585;44.802;10.332;2023-04-03T05:50:17;100679.34;;;11.02;54.96
78121;BME280;67585;44.802;10.332;2023-04-03T05:52:45;100711.13;;;13.18;52.15
78121;BME280;67585;44.802;10.332;2023-04-03T05:55:13;100644.28;;;14.28;47.60
78121;BME280;67585;44.802;10.332;2023-04-03T05:57:39;100696.50;;;14.79;45.23
78121;BME280;67585;44.802;10.332;2023-04-03T06:00:06;100707.88;;;13.01;48.79
78121;BME280;67585;44.802;10.332;2023-04-03T06:02:32;100713.97;;;11.84;51.84
78121;BME280;67585;44.802;10.332;2023-04-03T06:04:57;100713.59;;;11.54;53.54
78121;BME280;67585;44.802;10.332;2023-04-03T06:07:24;100704.50;;;11.18;54.63
78121;BME280;67585;44.802;10.332;2023-04-03T06:09:53;100705.63;;;11.27;54.06
78121;BME280;67585;44.802;10.332;2023-04-03T06:12:19;100660.47;;;11.02;54.40
78121;BME280;67585;44.802;10.332;2023-04-03T06:14:45;100715.03;;;11.20;54.50
78121;BME280;67585;44.802;10.332;2023-04-03T06:17:11;100723.94;;;11.25;54.45
78121;BME280;67585;44.802;10.332;2023-04-03T06:19:37;100725.16;;;11.50;54.28
78121;BME280;67585;44.802;10.332;2023-04-03T06:22:03;100706.41;;;11.23;54.99
78121;BME280;67585;44.802;10.332;2023-04-03T06:24:29;100699.44;;;11.27;54.49
78121;BME280;67585;44.802;10.332;2023-04-03T06:26:55;100734.03;;;11.45;54.19
78121;BME280;67585;44.802;10.332;2023-04-03T06:29:21;100720.56;;;11.50;54.78
78121;BME280;67585;44.802;10.332;2023-04-03T06:31:47;100708.69;;;11.46;54.47
78121;BME280;67585;44.802;10.332;2023-04-03T06:34:13;100690.91;;;11.50;54.37
78121;BME280;67585;44.802;10.332;2023-04-03T06:36:41;100732.88;;;11.84;54.07
78121;BME280;67585;44.802;10.332;2023-04-03T06:39:06;100743.50;;;12.06;53.26
78121;BME280;67585;44.802;10.332;2023-04-03T06:41:32;100744.63;;;12.20;53.45
78121;BME280;67585;44.802;10.332;2023-04-03T06:43:58;100729.50;;;12.09;53.86
78121;BME280;67585;44.802;10.332;2023-04-03T06:46:25;100723.25;;;12.03;53.98
78121;BME280;67585;44.802;10.332;2023-04-03T06:48:51;100725.16;;;12.18;52.58
78121;BME280;67585;44.802;10.332;2023-04-03T06:51:25;100742.16;;;12.13;54.29
78121;BME280;67585;44.802;10.332;2023-04-03T06:53:53;100740.06;;;12.36;53.88
78121;BME280;67585;44.802;10.332;2023-04-03T06:56:19;100744.97;;;12.80;52.40
78121;BME280;67585;44.802;10.332;2023-04-03T06:58:45;100742.22;;;13.05;52.71
78121;BME280;67585;44.802;10.332;2023-04-03T07:01:12;100735.72;;;13.22;51.80
78121;BME280;67585;44.802;10.332;2023-04-03T07:03:39;100705.19;;;13.11;51.80
78121;BME280;67585;44.802;10.332;2023-04-03T07:06:06;100746.22;;;13.49;51.27
78121;BME280;67585;44.802;10.332;2023-04-03T07:08:32;100745.34;;;13.74;51.02
78121;BME280;67585;44.802;10.332;2023-04-03T07:10:57;100723.72;;;13.64;50.61
78121;BME280;67585;44.802;10.332;2023-04-03T07:13:23;100650.78;;;13.33;50.51
78121;BME280;67585;44.802;10.332;2023-04-03T07:15:48;100733.09;;;13.92;51.37
78121;BME280;67585;44.802;10.332;2023-04-03T07:18:14;100757.50;;;14.31;51.76
78121;BME280;67585;44.802;10.332;2023-04-03T07:20:39;100756.84;;;14.55;50.80
78121;BME280;67585;44.802;10.332;2023-04-03T07:23:05;100734.38;;;14.49;50.30
78121;BME280;67585;44.802;10.332;2023-04-03T07:25:31;100761.59;;;15.08;49.58
78121;BME280;67585;44.802;10.332;2023-04-03T07:27:57;100755.66;;;14.71;50.36
78121;BME280;67585;44.802;10.332;2023-04-03T07:30:22;100757.72;;;14.85;51.07
78121;BME280;67585;44.802;10.332;2023-04-03T07:32:48;100751.53;;;15.08;50.79
78121;BME280;67585;44.802;10.332;2023-04-03T07:35:13;100752.59;;;15.12;51.54
78121;BME280;67585;44.802;10.332;2023-04-03T07:37:39;100709.47;;;14.82;51.73
78121;BME280;67585;44.802;10.332;2023-04-03T07:40:05;100718.81;;;15.24;50.74
78121;BME280;67585;44.802;10.332;2023-04-03T07:42:31;100750.72;;;15.61;50.20
78121;BME280;67585;44.802;10.332;2023-04-03T07:44:57;100739.16;;;15.26;51.07
78121;BME280;67585;44.802;10.332;2023-04-03T07:47:22;100755.38;;;15.55;51.09
78121;BME280;67585;44.802;10.332;2023-04-03T07:49:48;100711.84;;;15.66;50.43
78121;BME280;67585;44.802;10.332;2023-04-03T07:52:13;100726.22;;;15.18;51.72
78121;BME280;67585;44.802;10.332;2023-04-03T07:54:42;100748.50;;;15.63;51.58
78121;BME280;67585;44.802;10.332;2023-04-03T07:57:07;100718.50;;;15.78;50.31
78121;BME280;67585;44.802;10.332;2023-04-03T07:59:33;100703.34;;;15.72;50.84
78121;BME280;67585;44.802;10.332;2023-04-03T08:01:58;100762.56;;;15.94;50.89
78121;BME280;67585;44.802;10.332;2023-04-03T08:04:24;100766.72;;;16.30;49.63
78121;BME280;67585;44.802;10.332;2023-04-03T08:06:51;100764.13;;;16.00;50.98
78121;BME280;67585;44.802;10.332;2023-04-03T08:09:16;100763.47;;;16.28;50.21
78121;BME280;67585;44.802;10.332;2023-04-03T08:11:42;100758.50;;;16.54;49.44
78121;BME280;67585;44.802;10.332;2023-04-03T08:14:08;100717.56;;;16.45;49.46
78121;BME280;67585;44.802;10.332;2023-04-03T08:16:36;100760.88;;;16.55;50.44
78121;BME280;67585;44.802;10.332;2023-04-03T08:19:01;100752.94;;;16.78;49.46
78121;BME280;67585;44.802;10.332;2023-04-03T08:21:26;100748.50;;;17.01;49.10
78121;BME280;67585;44.802;10.332;2023-04-03T08:23:52;100748.06;;;16.94;48.86
78121;BME280;67585;44.802;10.332;2023-04-03T08:26:20;100768.22;;;16.41;51.20
78121;BME280;67585;44.802;10.332;2023-04-03T08:28:46;100767.19;;;16.70;50.81
78121;BME280;67585;44.802;10.332;2023-04-03T08:31:15;100769.25;;;16.97;50.08
78121;BME280;67585;44.802;10.332;2023-04-03T08:33:42;100762.53;;;16.56;51.36
78121;BME280;67585;44.802;10.332;2023-04-03T08:36:20;100755.56;;;17.02;49.99
78121;BME280;67585;44.802;10.332;2023-04-03T08:38:46;100745.25;;;17.45;49.10
78121;BME280;67585;44.802;10.332;2023-04-03T08:41:16;100768.84;;;17.78;48.77
78121;BME280;67585;44.802;10.332;2023-04-03T08:46:33;100754.63;;;17.81;48.72
78121;BME280;67585;44.802;10.332;2023-04-03T08:49:04;100755.03;;;18.02;47.90
78121;BME280;67585;44.802;10.332;2023-04-03T08:51:32;100753.47;;;18.23;47.29
78121;BME280;67585;44.802;10.332;2023-04-03T08:54:01;100746.34;;;17.58;49.21
78121;BME280;67585;44.802;10.332;2023-04-03T08:56:30;100743.00;;;17.61;48.87
78121;BME280;67585;44.802;10.332;2023-04-03T08:58:58;100732.63;;;17.91;48.47
78121;BME280;67585;44.802;10.332;2023-04-03T09:01:39;100698.22;;;17.40;49.31
78121;BME280;67585;44.802;10.332;2023-04-03T09:04:14;100736.66;;;17.93;48.80
78121;BME280;67585;44.802;10.332;2023-04-03T09:06:43;100753.84;;;18.30;48.53
78121;BME280;67585;44.802;10.332;2023-04-03T09:09:40;100747.34;;;18.04;48.48
78121;BME280;67585;44.802;10.332;2023-04-03T09:12:25;100753.41;;;17.73;49.92
78121;BME280;67585;44.802;10.332;2023-04-03T09:15:07;100732.22;;;18.56;47.65
78121;BME280;67585;44.802;10.332;2023-04-03T09:18:02;100743.38;;;18.69;47.37
78121;BME280;67585;44.802;10.332;2023-04-03T09:20:56;100746.88;;;18.61;46.85
78121;BME280;67585;44.802;10.332;2023-04-03T09:23:33;100745.41;;;18.54;46.82
78121;BME280;67585;44.802;10.332;2023-04-03T09:26:13;100718.94;;;18.77;46.56
78121;BME280;67585;44.802;10.332;2023-04-03T09:28:40;100746.78;;;18.52;46.52
78121;BME280;67585;44.802;10.332;2023-04-03T09:31:40;100745.38;;;18.99;46.69
78121;BME280;67585;44.802;10.332;2023-04-03T09:34:17;100746.75;;;19.11;45.28
78121;BME280;67585;44.802;10.332;2023-04-03T09:36:49;100732.38;;;18.96;45.16
78121;BME280;67585;44.802;10.332;2023-04-03T09:39:17;100747.88;;;18.65;46.28
78121;BME280;67585;44.802;10.332;2023-04-03T09:42:11;100739.38;;;17.66;48.82
78121;BME280;67585;44.802;10.332;2023-04-03T09:44:40;100742.28;;;18.11;47.12
78121;BME280;67585;44.802;10.332;2023-04-03T09:47:25;100742.91;;;18.67;45.75
78121;BME280;67585;44.802;10.332;2023-04-03T09:52:40;100739.13;;;18.18;45.17
78121;BME280;67585;44.802;10.332;2023-04-03T09:55:26;100735.25;;;16.94;48.43
78121;BME280;67585;44.802;10.332;2023-04-03T09:58:01;100697.59;;;16.69;48.21
78121;BME280;67585;44.802;10.332;2023-04-03T10:00:31;100701.47;;;16.81;49.02
78121;BME280;67585;44.802;10.332;2023-04-03T10:02:59;100695.09;;;17.60;46.48
78121;BME280;67585;44.802;10.332;2023-04-03T10:13:49;100716.53;;;18.40;42.86
78121;BME280;67585;44.802;10.332;2023-04-03T10:16:18;100719.31;;;17.34;44.33
78121;BME280;67585;44.802;10.332;2023-04-03T10:26:45;100704.16;;;17.97;44.05
78121;BME280;67585;44.802;10.332;2023-04-03T10:31:51;100683.50;;;18.41;42.08
78121;BME280;67585;44.802;10.332;2023-04-03T10:34:39;100692.56;;;19.44;40.75
78121;BME280;67585;44.802;10.332;2023-04-03T10:37:30;100696.97;;;18.60;41.00
78121;BME280;67585;44.802;10.332;2023-04-03T10:40:29;100655.56;;;18.35;41.95
78121;BME280;67585;44.802;10.332;2023-04-03T10:43:22;100698.59;;;18.84;40.65
78121;BME280;67585;44.802;10.332;2023-04-03T10:48:43;100672.63;;;19.43;39.55
78121;BME280;67585;44.802;10.332;2023-04-03T10:56:52;100643.84;;;17.62;43.87
78121;BME280;67585;44.802;10.332;2023-04-03T10:59:30;100679.97;;;17.82;44.95
78121;BME280;67585;44.802;10.332;2023-04-03T11:02:00;100669.00;;;17.45;46.11
78121;BME280;67585;44.802;10.332;2023-04-03T11:04:30;100682.28;;;17.19;47.72
78121;BME280;67585;44.802;10.332;2023-04-03T11:07:08;100682.16;;;16.83;48.92
78121;BME280;67585;44.802;10.332;2023-04-03T11:09:39;100683.50;;;16.99;48.13
78121;BME280;67585;44.802;10.332;2023-04-03T11:14:47;100681.75;;;17.86;44.25
78121;BME280;67585;44.802;10.332;2023-04-03T11:17:23;100648.38;;;18.03;43.07
78121;BME280;67585;44.802;10.332;2023-04-03T11:20:08;100656.75;;;18.52;42.54
78121;BME280;67585;44.802;10.332;2023-04-03T11:22:42;100674.22;;;18.73;40.93
78121;BME280;67585;44.802;10.332;2023-04-03T11:27:57;100654.78;;;18.89;38.99
78121;BME280;67585;44.802;10.332;2023-04-03T11:33:20;100653.50;;;19.35;37.70
78121;BME280;67585;44.802;10.332;2023-04-03T11:35:51;100649.63;;;18.65;39.04
78121;BME280;67585;44.802;10.332;2023-04-03T11:38:27;100647.16;;;18.32;39.36
78121;BME280;67585;44.802;10.332;2023-04-03T11:40:55;100644.25;;;18.51;38.39
78121;BME280;67585;44.802;10.332;2023-04-03T11:43:27;100645.03;;;17.70;37.71
78121;BME280;67585;44.802;10.332;2023-04-03T11:46:06;100652.88;;;17.99;36.93
78121;BME280;67585;44.802;10.332;2023-04-03T11:53:36;100616.81;;;18.25;35.92
78121;BME280;67585;44.802;10.332;2023-04-03T12:01:04;100623.59;;;18.58;34.93
78121;BME280;67585;44.802;10.332;2023-04-03T12:03:34;100618.78;;;18.87;34.54
78121;BME280;67585;44.802;10.332;2023-04-03T12:08:49;100622.38;;;19.05;34.08
78121;BME280;67585;44.802;10.332;2023-04-03T12:11:32;100597.41;;;19.20;33.17
78121;BME280;67585;44.802;10.332;2023-04-03T12:16:46;100597.31;;;18.94;34.21
78121;BME280;67585;44.802;10.332;2023-04-03T12:26:48;100599.22;;;18.08;35.73
78121;BME280;67585;44.802;10.332;2023-04-03T12:35:08;100588.19;;;19.07;34.15
78121;BME280;67585;44.802;10.332;2023-04-03T12:43:28;100582.41;;;19.09;32.81
78121;BME280;67585;44.802;10.332;2023-04-03T12:48:38;100575.09;;;19.35;32.80
78121;BME280;67585;44.802;10.332;2023-04-03T12:51:05;100586.38;;;18.94;33.51
78121;BME280;67585;44.802;10.332;2023-04-03T12:53:35;100564.72;;;18.66;33.84
78121;BME280;67585;44.802;10.332;2023-04-03T12:58:48;100579.16;;;18.98;33.11
78121;BME280;67585;44.802;10.332;2023-04-03T13:01:20;100573.19;;;18.56;34.22
78121;BME280;67585;44.802;10.332;2023-04-03T13:03:52;100565.34;;;18.63;33.98
78121;BME280;67585;44.802;10.332;2023-04-03T13:06:35;100559.91;;;18.63;34.03
78121;BME280;67585;44.802;10.332;2023-04-03T13:09:04;100551.44;;;18.42;34.36
78121;BME280;67585;44.802;10.332;2023-04-03T13:11:38;100556.16;;;18.19;35.54
78121;BME280;67585;44.802;10.332;2023-04-03T13:14:16;100557.06;;;18.14;35.15
78121;BME280;67585;44.802;10.332;2023-04-03T13:19:27;100554.94;;;17.66;39.56
78121;BME280;67585;44.802;10.332;2023-04-03T13:22:04;100555.56;;;17.63;41.58
78121;BME280;67585;44.802;10.332;2023-04-03T13:24:34;100554.22;;;17.38;41.45
78121;BME280;67585;44.802;10.332;2023-04-03T13:27:02;100541.00;;;17.45;41.07
78121;BME280;67585;44.802;10.332;2023-04-03T13:29:31;100539.97;;;17.78;40.56
78121;BME280;67585;44.802;10.332;2023-04-03T13:32:00;100521.84;;;17.96;39.42
78121;BME280;67585;44.802;10.332;2023-04-03T13:34:29;100550.09;;;18.00;38.45
78121;BME280;67585;44.802;10.332;2023-04-03T13:37:00;100538.56;;;18.03;37.86
78121;BME280;67585;44.802;10.332;2023-04-03T13:39:45;100538.50;;;18.17;38.93
78121;BME280;67585;44.802;10.332;2023-04-03T13:42:20;100552.44;;;17.92;41.54
78121;BME280;67585;44.802;10.332;2023-04-03T13:44:46;100551.69;;;17.64;42.24
78121;BME280;67585;44.802;10.332;2023-04-03T13:47:20;100551.00;;;17.36;43.03
78121;BME280;67585;44.802;10.332;2023-04-03T13:52:34;100556.00;;;16.93;43.22
78121;BME280;67585;44.802;10.332;2023-04-03T13:55:32;100562.06;;;17.40;40.94
78121;BME280;67585;44.802;10.332;2023-04-03T14:00:46;100558.72;;;17.06;41.96
78121;BME280;67585;44.802;10.332;2023-04-03T14:03:16;100559.19;;;17.22;39.74
78121;BME280;67585;44.802;10.332;2023-04-03T14:05:43;100556.06;;;17.01;40.55
78121;BME280;67585;44.802;10.332;2023-04-03T14:08:10;100549.72;;;17.20;39.47
78121;BME280;67585;44.802;10.332;2023-04-03T14:10:36;100514.25;;;16.97;39.76
78121;BME280;67585;44.802;10.332;2023-04-03T14:13:02;100556.22;;;17.33;39.68
78121;BME280;67585;44.802;10.332;2023-04-03T14:15:30;100550.19;;;17.36;39.36
78121;BME280;67585;44.802;10.332;2023-04-03T14:17:56;100541.34;;;17.16;40.26
78121;BME280;67585;44.802;10.332;2023-04-03T14:20:24;100523.63;;;16.91;41.38
78121;BME280;67585;44.802;10.332;2023-04-03T14:22:51;100521.50;;;16.60;41.63